Time;durP1;ratioP1;P1;durP2;ratioP2;P2;SDS_P1;SDS_P2;PMS_P1;PMS_P2;Temp;Humidity;BMP_temperature;BMP_pressure;BME280_temperature;BME280_humidity;BME280_pressure;Samples;Min_cycle;Max_cycle;Signal;HPM_P1;HPM_P2
2022/08/05 00:01:27;;;;;;;3.42;2.10;;;;;;;;;;5055044;28;20221;-84
2022/08/05 00:03:54;;;;;;;3.97;2.42;;;;;;;;;;5055141;28;20256;-84
2022/08/05 00:06:21;;;;;;;2.95;2.10;;;;;;;;;;5064864;28;20210;-84
2022/08/05 00:08:48;;;;;;;2.75;2.03;;;;;;;;;;5063777;28;20226;-84
2022/08/05 00:11:16;;;;;;;5.88;2.55;;;;;;;;;;5055035;28;20206;-85
2022/08/05 00:13:44;;;;;;;4.95;1.80;;;;;;;;;;5054491;28;20710;-85
2022/08/05 00:16:13;;;;;;;3.90;2.85;;;;;;;;;;5054988;28;20202;-84
2022/08/05 00:18:40;;;;;;;4.68;2.20;;;;;;;;;;5054133;28;20603;-85
2022/08/05 00:21:07;;;;;;;8.98;2.30;;;;;;;;;;5054920;28;20570;-85
2022/08/05 00:23:34;;;;;;;5.82;2.17;;;;;;;;;;5054282;28;20256;-85
2022/08/05 00:26:02;;;;;;;6.82;2.33;;;;;;;;;;5054848;28;20206;-85
2022/08/05 00:28:29;;;;;;;5.35;1.85;;;;;;;;;;5057315;28;20232;-84
2022/08/05 00:30:56;;;;;;;6.47;1.95;;;;;;;;;;5058034;28;20670;-84
2022/08/05 00:33:24;;;;;;;7.25;2.80;;;;;;;;;;5056618;28;20253;-84
2022/08/05 00:35:51;;;;;;;6.95;2.50;;;;;;;;;;5038187;28;20214;-86
2022/08/05 00:38:18;;;;;;;3.42;2.53;;;;;;;;;;5051919;28;20233;-83
2022/08/05 00:40:49;;;;;;;6.28;2.75;;;;;;;;;;5057563;28;20198;-84
2022/08/05 00:43:16;;;;;;;5.65;2.30;;;;;;;;;;5057513;28;20234;-84
2022/08/05 00:45:43;;;;;;;9.07;2.97;;;;;;;;;;5062986;28;20198;-85
2022/08/05 00:48:11;;;;;;;6.95;2.70;;;;;;;;;;5062783;28;20716;-84
2022/08/05 00:50:40;;;;;;;4.22;2.70;;;;;;;;;;5054543;28;20723;-85
2022/08/05 00:53:08;;;;;;;9.93;4.20;;;;;;;;;;5053896;28;20230;-85
2022/08/05 00:55:35;;;;;;;8.55;3.08;;;;;;;;;;5053563;28;20225;-84
2022/08/05 00:58:02;;;;;;;6.07;2.95;;;;;;;;;;5053705;28;20234;-84
2022/08/05 01:00:30;;;;;;;4.47;2.90;;;;;;;;;;5037312;28;20206;-85
2022/08/05 01:02:57;;;;;;;5.47;3.28;;;;;;;;;;5053540;28;20233;-84
2022/08/05 01:05:24;;;;;;;5.88;3.00;;;;;;;;;;5049992;28;20206;-85
2022/08/05 01:07:53;;;;;;;6.65;3.10;;;;;;;;;;5053817;28;20233;-84
2022/08/05 01:10:22;;;;;;;5.35;2.90;;;;;;;;;;5054227;28;20577;-85
2022/08/05 01:12:53;;;;;;;5.95;2.72;;;;;;;;;;5053364;28;20233;-85
2022/08/05 01:15:21;;;;;;;7.32;2.72;;;;;;;;;;5053882;28;20225;-83
2022/08/05 01:17:51;;;;;;;4.28;3.00;;;;;;;;;;5053649;28;20316;-85
2022/08/05 01:20:23;;;;;;;5.28;3.03;;;;;;;;;;5071966;28;20198;-84
2022/08/05 01:23:02;;;;;;;4.75;2.63;;;;;;;;;;5056108;28;20234;-84
2022/08/05 01:25:45;;;;;;;3.08;2.63;;;;;;;;;;5058750;28;20206;-85
2022/08/05 01:28:17;;;;;;;4.38;2.80;;;;;;;;;;5053506;28;20276;-84
2022/08/05 01:30:46;;;;;;;6.00;2.70;;;;;;;;;;5053900;28;20268;-84
2022/08/05 01:33:15;;;;;;;2.63;2.38;;;;;;;;;;5053486;28;20773;-84
2022/08/05 01:35:43;;;;;;;5.60;2.60;;;;;;;;;;5054025;28;20571;-83
2022/08/05 01:38:11;;;;;;;8.57;2.83;;;;;;;;;;5053211;28;20325;-84
2022/08/05 01:40:42;;;;;;;6.07;2.78;;;;;;;;;;5053955;28;20202;-84
2022/08/05 01:43:10;;;;;;;6.07;3.22;;;;;;;;;;5052844;28;20237;-85
2022/08/05 01:45:39;;;;;;;4.53;2.95;;;;;;;;;;5053821;28;20193;-84
2022/08/05 01:48:07;;;;;;;5.38;2.72;;;;;;;;;;5053228;28;20237;-85
2022/08/05 01:50:37;;;;;;;6.28;2.80;;;;;;;;;;5061410;28;20232;-84
2022/08/05 01:53:07;;;;;;;5.70;2.97;;;;;;;;;;5060336;28;20226;-84
2022/08/05 01:55:35;;;;;;;5.00;3.08;;;;;;;;;;5067050;28;20233;-84
2022/08/05 01:58:04;;;;;;;4.22;2.85;;;;;;;;;;5068466;28;20253;-84
2022/08/05 02:00:32;;;;;;;5.63;3.13;;;;;;;;;;5057583;28;20249;-85
2022/08/05 02:03:02;;;;;;;9.68;2.90;;;;;;;;;;5068873;28;20233;-84
2022/08/05 02:05:32;;;;;;;7.57;2.92;;;;;;;;;;5067230;28;20210;-85
2022/08/05 02:07:59;;;;;;;3.78;2.70;;;;;;;;;;5067863;28;20249;-83
2022/08/05 02:10:27;;;;;;;5.70;2.78;;;;;;;;;;5065560;28;20293;-84
2022/08/05 02:12:56;;;;;;;2.83;2.60;;;;;;;;;;5067551;28;20264;-84
2022/08/05 02:15:25;;;;;;;3.10;2.50;;;;;;;;;;5062314;28;20280;-84
2022/08/05 02:17:53;;;;;;;5.97;3.00;;;;;;;;;;5059016;28;20233;-84
2022/08/05 02:20:23;;;;;;;6.97;2.88;;;;;;;;;;5055985;28;20213;-85
2022/08/05 02:22:53;;;;;;;5.95;3.03;;;;;;;;;;5057421;28;20232;-85
2022/08/05 02:25:25;;;;;;;4.68;2.72;;;;;;;;;;5052820;28;20202;-84
2022/08/05 02:27:52;;;;;;;5.85;3.00;;;;;;;;;;5052562;28;20242;-84
2022/08/05 02:30:19;;;;;;;3.88;2.78;;;;;;;;;;5053077;28;20195;-85
2022/08/05 02:32:48;;;;;;;5.30;2.80;;;;;;;;;;5052322;28;20240;-84
2022/08/05 02:35:19;;;;;;;6.50;2.80;;;;;;;;;;5052922;28;20374;-84
2022/08/05 02:37:47;;;;;;;3.90;2.50;;;;;;;;;;5052260;28;20241;-84
2022/08/05 02:40:16;;;;;;;3.38;2.50;;;;;;;;;;5053111;28;20206;-85
2022/08/05 02:42:44;;;;;;;4.72;2.78;;;;;;;;;;5051767;28;20773;-85
2022/08/05 02:45:11;;;;;;;3.30;2.55;;;;;;;;;;5052555;28;20209;-84
2022/08/05 02:47:39;;;;;;;5.28;2.90;;;;;;;;;;5052047;28;20241;-85
2022/08/05 02:50:08;;;;;;;2.85;2.60;;;;;;;;;;5052640;28;20221;-85
2022/08/05 02:52:35;;;;;;;3.47;2.60;;;;;;;;;;5052276;28;20236;-85
2022/08/05 02:55:05;;;;;;;4.57;2.88;;;;;;;;;;5053418;28;20249;-85
2022/08/05 02:57:32;;;;;;;4.82;2.53;;;;;;;;;;5052927;28;20241;-85
2022/08/05 02:59:59;;;;;;;6.80;2.97;;;;;;;;;;5038838;28;20209;-85
2022/08/05 03:02:28;;;;;;;6.53;3.20;;;;;;;;;;5031919;28;20256;-85
2022/08/05 03:04:57;;;;;;;4.22;2.75;;;;;;;;;;5032798;28;20202;-85
2022/08/05 03:07:25;;;;;;;6.70;3.70;;;;;;;;;;5033691;28;20238;-84
2022/08/05 03:09:53;;;;;;;5.88;3.60;;;;;;;;;;5037232;28;20210;-84
2022/08/05 03:12:34;;;;;;;9.23;3.72;;;;;;;;;;5035806;28;20234;-84
2022/08/05 03:15:01;;;;;;;4.57;3.38;;;;;;;;;;5036210;28;20226;-84
2022/08/05 03:17:29;;;;;;;10.02;3.70;;;;;;;;;;5035543;28;20238;-84
2022/08/05 03:19:56;;;;;;;8.82;3.85;;;;;;;;;;5036234;28;20210;-84
2022/08/05 03:22:23;;;;;;;6.55;3.72;;;;;;;;;;5035619;28;20309;-84
2022/08/05 03:24:51;;;;;;;11.00;3.63;;;;;;;;;;5036157;28;20609;-84
2022/08/05 03:27:18;;;;;;;10.43;3.67;;;;;;;;;;5035203;28;20245;-84
2022/08/05 03:29:47;;;;;;;8.07;3.80;;;;;;;;;;5035940;28;20202;-84
2022/08/05 03:32:15;;;;;;;10.30;4.38;;;;;;;;;;5050342;28;20233;-84
2022/08/05 03:34:42;;;;;;;7.13;4.22;;;;;;;;;;5055657;28;20312;-85
2022/08/05 03:37:09;;;;;;;7.10;3.85;;;;;;;;;;5054960;28;20234;-83
2022/08/05 03:39:37;;;;;;;9.50;4.35;;;;;;;;;;5055340;28;20209;-84
2022/08/05 03:42:04;;;;;;;7.60;3.67;;;;;;;;;;5054579;28;20236;-85
2022/08/05 03:44:31;;;;;;;8.63;3.92;;;;;;;;;;5054859;28;20198;-84
2022/08/05 03:47:00;;;;;;;7.32;3.78;;;;;;;;;;5054654;28;20237;-84
2022/08/05 03:49:27;;;;;;;6.28;3.80;;;;;;;;;;5044650;28;20257;-84
2022/08/05 03:51:56;;;;;;;9.63;4.40;;;;;;;;;;5051748;28;20571;-84
2022/08/05 03:54:27;;;;;;;8.13;3.65;;;;;;;;;;5055346;28;20233;-85
2022/08/05 03:56:54;;;;;;;6.63;3.88;;;;;;;;;;5064415;28;20229;-84
2022/08/05 03:59:24;;;;;;;6.05;4.13;;;;;;;;;;5056611;28;20206;-84
2022/08/05 04:01:52;;;;;;;6.82;3.10;;;;;;;;;;5053827;28;20198;-84
2022/08/05 04:04:21;;;;;;;9.43;3.78;;;;;;;;;;5046946;28;21016;-84
2022/08/05 04:06:49;;;;;;;4.40;2.75;;;;;;;;;;5045243;28;20218;-83
2022/08/05 04:09:17;;;;;;;5.03;3.20;;;;;;;;;;5054372;28;20604;-84
2022/08/05 04:11:44;;;;;;;3.95;2.63;;;;;;;;;;5052757;28;20209;-84
2022/08/05 04:14:11;;;;;;;5.47;2.88;;;;;;;;;;5048966;28;20208;-85
2022/08/05 04:16:38;;;;;;;2.95;2.75;;;;;;;;;;5052157;28;20230;-84
2022/08/05 04:19:05;;;;;;;3.03;2.83;;;;;;;;;;5040126;28;20206;-84
2022/08/05 04:21:34;;;;;;;6.35;3.08;;;;;;;;;;5050244;28;20221;-83
2022/08/05 04:24:03;;;;;;;4.95;3.28;;;;;;;;;;5053848;28;20238;-84
2022/08/05 04:26:30;;;;;;;4.38;3.13;;;;;;;;;;5042110;28;20222;-84
2022/08/05 04:28:57;;;;;;;3.67;3.30;;;;;;;;;;5035306;28;20245;-84
2022/08/05 04:31:24;;;;;;;5.53;3.63;;;;;;;;;;5034530;28;20230;-84
2022/08/05 04:33:51;;;;;;;3.85;3.35;;;;;;;;;;5033977;28;20238;-84
2022/08/05 04:36:18;;;;;;;5.05;3.50;;;;;;;;;;5034122;28;20233;-85
2022/08/05 04:38:47;;;;;;;7.85;3.35;;;;;;;;;;5033453;28;20265;-84
2022/08/05 04:41:14;;;;;;;6.30;3.60;;;;;;;;;;5034233;28;20217;-84
2022/08/05 04:43:41;;;;;;;3.67;3.05;;;;;;;;;;5041874;28;20229;-83
2022/08/05 04:46:08;;;;;;;4.97;3.03;;;;;;;;;;5053598;28;20645;-84
2022/08/05 04:48:35;;;;;;;5.35;3.20;;;;;;;;;;5053359;28;20287;-84
2022/08/05 04:51:02;;;;;;;3.85;2.95;;;;;;;;;;5049615;28;20199;-84
2022/08/05 04:53:29;;;;;;;4.00;3.13;;;;;;;;;;5033252;28;20873;-84
2022/08/05 04:55:57;;;;;;;6.80;3.22;;;;;;;;;;5034745;28;20230;-84
2022/08/05 04:58:25;;;;;;;5.53;3.60;;;;;;;;;;5037230;28;20249;-84
2022/08/05 05:00:52;;;;;;;3.60;3.30;;;;;;;;;;5036946;28;20202;-82
2022/08/05 05:03:19;;;;;;;7.13;3.92;;;;;;;;;;5037752;28;20293;-84
2022/08/05 05:05:46;;;;;;;6.57;3.53;;;;;;;;;;5038959;28;20213;-82
2022/08/05 05:08:13;;;;;;;5.00;3.42;;;;;;;;;;5054161;28;20318;-85
2022/08/05 05:10:42;;;;;;;9.27;3.60;;;;;;;;;;5054377;28;20203;-84
2022/08/05 05:13:10;;;;;;;5.65;3.58;;;;;;;;;;5053545;28;20295;-84
2022/08/05 05:15:37;;;;;;;4.13;3.42;;;;;;;;;;5038890;28;20231;-85
2022/08/05 05:18:05;;;;;;;6.35;3.65;;;;;;;;;;5052189;28;20242;-84
2022/08/05 05:20:32;;;;;;;5.68;3.97;;;;;;;;;;5048799;28;20199;-85
2022/08/05 05:22:59;;;;;;;8.48;4.07;;;;;;;;;;5039318;28;20230;-84
2022/08/05 05:25:26;;;;;;;5.82;3.92;;;;;;;;;;5034387;28;20211;-83
2022/08/05 05:27:54;;;;;;;4.93;3.85;;;;;;;;;;5034961;28;20234;-84
2022/08/05 05:30:23;;;;;;;4.13;3.75;;;;;;;;;;5044967;28;20197;-85
2022/08/05 05:32:50;;;;;;;6.28;4.00;;;;;;;;;;5054104;28;20234;-85
2022/08/05 05:35:17;;;;;;;8.57;4.38;;;;;;;;;;5054889;28;20221;-85
2022/08/05 05:37:48;;;;;;;6.72;4.57;;;;;;;;;;5053702;28;20241;-84
2022/08/05 05:40:15;;;;;;;5.60;4.22;;;;;;;;;;5053788;28;20201;-84
2022/08/05 05:42:42;;;;;;;7.00;4.10;;;;;;;;;;5052827;28;20277;-85
2022/08/05 05:45:10;;;;;;;6.38;4.13;;;;;;;;;;5053187;28;20560;-85
2022/08/05 05:47:39;;;;;;;8.07;4.60;;;;;;;;;;5052193;28;20241;-84
2022/08/05 05:50:07;;;;;;;5.78;4.53;;;;;;;;;;5052593;28;20259;-85
2022/08/05 05:52:34;;;;;;;9.88;4.03;;;;;;;;;;5052543;28;20229;-85
2022/08/05 05:55:01;;;;;;;6.55;4.25;;;;;;;;;;5054978;28;20206;-85
2022/08/05 05:57:28;;;;;;;5.22;4.10;;;;;;;;;;5052881;28;20230;-85
2022/08/05 05:59:55;;;;;;;5.75;4.38;;;;;;;;;;5056092;28;20202;-85
2022/08/05 06:02:22;;;;;;;7.53;4.45;;;;;;;;;;5051912;28;20230;-86
2022/08/05 06:04:51;;;;;;;6.10;4.55;;;;;;;;;;5051360;28;20202;-85
2022/08/05 06:07:18;;;;;;;7.97;4.38;;;;;;;;;;5052137;28;20238;-85
2022/08/05 06:09:45;;;;;;;6.20;4.28;;;;;;;;;;5053004;28;20209;-86
2022/08/05 06:12:12;;;;;;;6.90;4.70;;;;;;;;;;5051841;28;20237;-85
2022/08/05 06:14:41;;;;;;;5.82;3.78;;;;;;;;;;5052946;28;20206;-86
2022/08/05 06:17:08;;;;;;;5.90;4.00;;;;;;;;;;5052212;28;20230;-85
2022/08/05 06:19:35;;;;;;;4.30;3.80;;;;;;;;;;5052582;28;20210;-87
2022/08/05 06:22:04;;;;;;;5.10;4.05;;;;;;;;;;5052017;28;20241;-86
2022/08/05 06:24:31;;;;;;;5.88;3.92;;;;;;;;;;5052088;28;20976;-86
2022/08/05 06:26:58;;;;;;;5.13;3.63;;;;;;;;;;5052332;28;20713;-85
2022/08/05 06:29:25;;;;;;;4.65;3.65;;;;;;;;;;5052399;28;20221;-86
2022/08/05 06:31:53;;;;;;;4.30;3.83;;;;;;;;;;5051706;28;20202;-85
2022/08/05 06:34:20;;;;;;;5.55;3.70;;;;;;;;;;5045405;28;20621;-83
2022/08/05 06:36:47;;;;;;;5.93;4.10;;;;;;;;;;5032196;28;20725;-86
2022/08/05 06:39:15;;;;;;;7.90;4.40;;;;;;;;;;5032631;28;20210;-85
2022/08/05 06:41:42;;;;;;;5.20;3.85;;;;;;;;;;5032138;28;20215;-84
2022/08/05 06:44:10;;;;;;;6.15;4.22;;;;;;;;;;5034379;28;20199;-88
2022/08/05 06:46:37;;;;;;;6.38;3.67;;;;;;;;;;5056510;28;20253;-82
2022/08/05 06:49:04;;;;;;;4.68;4.15;;;;;;;;;;5054686;28;20234;-85
2022/08/05 06:51:31;;;;;;;5.25;4.00;;;;;;;;;;5052406;28;20190;-85
2022/08/05 06:53:58;;;;;;;5.95;4.00;;;;;;;;;;5052485;28;20237;-84
2022/08/05 06:56:27;;;;;;;5.30;3.65;;;;;;;;;;5056460;28;20254;-82
2022/08/05 06:58:54;;;;;;;4.43;3.67;;;;;;;;;;5055105;28;20245;-84
2022/08/05 07:01:21;;;;;;;5.57;3.72;;;;;;;;;;5052743;28;20194;-84
2022/08/05 07:03:48;;;;;;;4.72;3.20;;;;;;;;;;5052504;28;20234;-82
2022/08/05 07:06:16;;;;;;;3.95;3.28;;;;;;;;;;5057647;28;20248;-82
2022/08/05 07:08:43;;;;;;;3.83;3.40;;;;;;;;;;5063154;28;20225;-84
2022/08/05 07:11:10;;;;;;;4.13;3.47;;;;;;;;;;5052530;28;20202;-84
2022/08/05 07:19:20;;;;;;;5.30;3.28;;;;;;;;;;4951829;29;20236;-85
2022/08/05 07:21:47;;;;;;;4.15;3.13;;;;;;;;;;5019245;28;20219;-85
2022/08/05 07:24:15;;;;;;;4.43;2.70;;;;;;;;;;5032729;28;20563;-85
2022/08/05 07:26:42;;;;;;;3.47;2.70;;;;;;;;;;5032781;28;20261;-85
2022/08/05 07:29:11;;;;;;;3.20;2.88;;;;;;;;;;5033132;28;20211;-85
2022/08/05 07:31:38;;;;;;;5.20;2.67;;;;;;;;;;5031257;28;20206;-84
2022/08/05 07:34:05;;;;;;;2.47;2.25;;;;;;;;;;5031418;28;20659;-83
2022/08/05 07:36:32;;;;;;;5.18;2.33;;;;;;;;;;5031503;28;20238;-83
2022/08/05 07:39:00;;;;;;;2.55;2.35;;;;;;;;;;5047785;28;20312;-84
2022/08/05 07:41:27;;;;;;;3.92;2.30;;;;;;;;;;5051327;28;20212;-84
2022/08/05 07:43:55;;;;;;;2.60;2.28;;;;;;;;;;5050869;28;20241;-84
2022/08/05 07:46:23;;;;;;;2.90;2.20;;;;;;;;;;5051839;28;20752;-85
2022/08/05 07:48:50;;;;;;;3.05;2.08;;;;;;;;;;5058976;28;20233;-85
2022/08/05 07:51:18;;;;;;;2.85;2.20;;;;;;;;;;5051174;28;20206;-85
2022/08/05 07:53:45;;;;;;;2.60;2.10;;;;;;;;;;5053139;28;20777;-84
2022/08/05 07:56:12;;;;;;;3.67;2.28;;;;;;;;;;5054722;28;20240;-85
2022/08/05 07:58:45;;;;;;;3.00;2.10;;;;;;;;;;5055184;28;20678;-83
2022/08/05 08:01:12;;;;;;;5.78;2.10;;;;;;;;;;5056839;28;20209;-82
2022/08/05 08:03:40;;;;;;;5.20;2.35;;;;;;;;;;5055628;28;20299;-82
2022/08/05 08:06:07;;;;;;;2.42;2.10;;;;;;;;;;5058129;28;20213;-83
2022/08/05 08:08:34;;;;;;;3.53;2.15;;;;;;;;;;5059621;28;20237;-81
2022/08/05 08:11:01;;;;;;;5.10;2.40;;;;;;;;;;5063677;28;20214;-82
2022/08/05 08:13:28;;;;;;;4.28;2.30;;;;;;;;;;5066669;28;20671;-83
2022/08/05 08:15:55;;;;;;;3.47;2.50;;;;;;;;;;5062974;28;20187;-83
2022/08/05 08:18:23;;;;;;;2.60;2.40;;;;;;;;;;5064781;28;20240;-82
2022/08/05 08:20:51;;;;;;;2.67;2.10;;;;;;;;;;5065584;28;20202;-84
2022/08/05 08:23:18;;;;;;;2.47;2.03;;;;;;;;;;5050454;28;20242;-82
2022/08/05 08:25:45;;;;;;;2.67;2.13;;;;;;;;;;5047623;28;20205;-80
2022/08/05 08:28:13;;;;;;;4.95;2.47;;;;;;;;;;5049399;28;20264;-81
2022/08/05 08:30:40;;;;;;;2.50;2.03;;;;;;;;;;5045678;28;20269;-83
2022/08/05 08:33:08;;;;;;;2.88;2.30;;;;;;;;;;5064588;28;20241;-82
2022/08/05 08:35:35;;;;;;;3.70;2.47;;;;;;;;;;5054069;28;20611;-82
2022/08/05 08:38:03;;;;;;;3.25;2.53;;;;;;;;;;5050709;28;20706;-84
2022/08/05 08:40:32;;;;;;;2.42;2.22;;;;;;;;;;5055106;28;20309;-83
2022/08/05 08:43:00;;;;;;;2.13;2.00;;;;;;;;;;5043865;28;20234;-84
2022/08/05 08:45:28;;;;;;;2.97;2.42;;;;;;;;;;5035383;28;20215;-84
2022/08/05 08:47:56;;;;;;;2.03;1.85;;;;;;;;;;5054056;28;20565;-84
2022/08/05 08:50:23;;;;;;;1.90;1.77;;;;;;;;;;5074952;28;20209;-84
2022/08/05 08:52:53;;;;;;;1.90;1.80;;;;;;;;;;5074548;28;20637;-83
2022/08/05 08:55:21;;;;;;;2.65;2.15;;;;;;;;;;5075626;28;20220;-84
2022/08/05 08:57:49;;;;;;;3.00;2.38;;;;;;;;;;5074490;28;20623;-89
2022/08/05 09:00:16;;;;;;;2.00;1.90;;;;;;;;;;5074535;28;20205;-84
2022/08/05 09:02:44;;;;;;;2.60;2.10;;;;;;;;;;5073666;28;20245;-85
2022/08/05 09:05:12;;;;;;;2.17;2.00;;;;;;;;;;5072756;28;20696;-84
2022/08/05 09:07:39;;;;;;;2.13;1.92;;;;;;;;;;5075655;28;20593;-87
2022/08/05 09:10:07;;;;;;;2.42;2.00;;;;;;;;;;5075495;28;20212;-85
2022/08/05 09:12:36;;;;;;;2.33;2.13;;;;;;;;;;5073298;28;20225;-85
2022/08/05 09:15:04;;;;;;;3.83;2.20;;;;;;;;;;5073477;28;20565;-82
2022/08/05 09:17:31;;;;;;;2.38;2.17;;;;;;;;;;5065568;28;20261;-86
2022/08/05 09:19:59;;;;;;;3.17;2.25;;;;;;;;;;5053802;28;20206;-86
2022/08/05 09:22:26;;;;;;;2.72;2.45;;;;;;;;;;5057801;28;20705;-86
2022/08/05 09:25:00;;;;;;;3.28;2.33;;;;;;;;;;5059405;28;20206;-86
2022/08/05 09:27:34;;;;;;;2.75;2.22;;;;;;;;;;5053377;28;20237;-86
2022/08/05 09:30:02;;;;;;;3.55;2.10;;;;;;;;;;5053347;28;20208;-86
2022/08/05 09:32:36;;;;;;;2.20;2.00;;;;;;;;;;5051992;28;20233;-86
2022/08/05 09:35:11;;;;;;;3.15;2.42;;;;;;;;;;5053407;28;20316;-86
2022/08/05 09:37:39;;;;;;;2.22;1.90;;;;;;;;;;5052894;28;20640;-86
2022/08/05 09:40:07;;;;;;;1.92;1.80;;;;;;;;;;5056683;28;20659;-86
2022/08/05 09:42:39;;;;;;;2.20;2.00;;;;;;;;;;5057363;28;20234;-86
2022/08/05 09:45:09;;;;;;;3.20;2.20;;;;;;;;;;5055924;28;20197;-86
2022/08/05 09:47:41;;;;;;;2.35;1.92;;;;;;;;;;5053657;28;20234;-86
2022/08/05 09:50:08;;;;;;;2.60;2.40;;;;;;;;;;5053481;28;20190;-86
2022/08/05 09:52:36;;;;;;;2.55;2.13;;;;;;;;;;5052328;28;20309;-85
2022/08/05 09:55:05;;;;;;;2.88;2.30;;;;;;;;;;5053276;28;20214;-87
2022/08/05 09:57:33;;;;;;;2.63;2.10;;;;;;;;;;5052126;28;20298;-88
2022/08/05 10:00:01;;;;;;;2.63;2.20;;;;;;;;;;5053045;28;20202;-87
2022/08/05 10:02:33;;;;;;;3.30;2.28;;;;;;;;;;5052050;28;20232;-87
2022/08/05 10:05:05;;;;;;;1.83;1.73;;;;;;;;;;5053303;28;20213;-87
2022/08/05 10:07:43;;;;;;;2.30;2.10;;;;;;;;;;5052268;28;20229;-87
2022/08/05 10:10:10;;;;;;;2.28;2.03;;;;;;;;;;5053156;28;20558;-88
2022/08/05 10:12:40;;;;;;;2.60;2.28;;;;;;;;;;5052076;28;20256;-88
2022/08/05 10:15:14;;;;;;;2.58;2.22;;;;;;;;;;5052640;28;20284;-88
2022/08/05 10:17:42;;;;;;;3.08;2.20;;;;;;;;;;5051880;28;20258;-87
2022/08/05 10:20:11;;;;;;;3.05;2.05;;;;;;;;;;5052975;28;20214;-87
2022/08/05 10:22:40;;;;;;;2.10;2.00;;;;;;;;;;5052049;28;20649;-88
2022/08/05 10:25:07;;;;;;;2.38;2.17;;;;;;;;;;5052464;28;20210;-87
2022/08/05 10:27:34;;;;;;;2.50;2.30;;;;;;;;;;5052065;28;20245;-88
2022/08/05 10:30:01;;;;;;;2.17;1.98;;;;;;;;;;5052770;28;20205;-87
2022/08/05 10:32:28;;;;;;;2.35;2.20;;;;;;;;;;5052182;28;20226;-88
2022/08/05 10:34:58;;;;;;;2.92;2.35;;;;;;;;;;5052497;28;20213;-87
2022/08/05 10:37:28;;;;;;;2.28;2.17;;;;;;;;;;5051998;28;20237;-87
2022/08/05 10:39:56;;;;;;;2.30;2.10;;;;;;;;;;5052812;28;20695;-87
2022/08/05 10:42:25;;;;;;;2.50;2.15;;;;;;;;;;5052255;28;20234;-88
2022/08/05 10:44:54;;;;;;;3.05;2.60;;;;;;;;;;5052931;28;20567;-87
2022/08/05 10:47:30;;;;;;;2.47;2.28;;;;;;;;;;5052016;28;20234;-89
2022/08/05 10:50:04;;;;;;;2.35;2.05;;;;;;;;;;5052690;28;20209;-88
2022/08/05 10:52:42;;;;;;;4.28;1.88;;;;;;;;;;5052038;28;20240;-88
2022/08/05 10:55:10;;;;;;;2.38;2.10;;;;;;;;;;5052044;28;20696;-87
2022/08/05 10:57:40;;;;;;;3.30;2.20;;;;;;;;;;5051649;28;20649;-88
2022/08/05 11:00:08;;;;;;;2.78;2.00;;;;;;;;;;5052061;28;20205;-88
2022/08/05 11:02:35;;;;;;;3.17;2.30;;;;;;;;;;5051657;28;20236;-88
2022/08/05 11:05:05;;;;;;;2.40;2.20;;;;;;;;;;5052403;28;20677;-89
2022/08/05 11:07:33;;;;;;;3.00;2.08;;;;;;;;;;5051873;28;20578;-88
2022/08/05 11:10:01;;;;;;;4.50;2.35;;;;;;;;;;5052644;28;20241;-88
2022/08/05 11:12:45;;;;;;;3.40;2.45;;;;;;;;;;5051792;28;20238;-86
2022/08/05 11:15:19;;;;;;;2.30;2.10;;;;;;;;;;5052316;28;20205;-88
2022/08/05 11:17:47;;;;;;;2.45;2.25;;;;;;;;;;5051442;28;20873;-90
2022/08/05 11:20:35;;;;;;;3.28;2.03;;;;;;;;;;5052367;28;20256;-89
2022/08/05 11:23:23;;;;;;;2.22;2.03;;;;;;;;;;5051584;28;20234;-88
2022/08/05 11:26:01;;;;;;;2.65;2.05;;;;;;;;;;5052036;28;20618;-88
2022/08/05 11:28:38;;;;;;;2.17;1.83;;;;;;;;;;5053191;28;20249;-89
2022/08/05 11:31:26;;;;;;;2.38;1.85;;;;;;;;;;5056165;28;20228;-87
2022/08/05 11:33:55;;;;;;;2.92;1.92;;;;;;;;;;5055459;28;20234;-87
2022/08/05 11:36:22;;;;;;;2.13;1.85;;;;;;;;;;5055949;28;20198;-87
2022/08/05 11:38:54;;;;;;;3.70;1.98;;;;;;;;;;5055310;28;20234;-88
2022/08/05 11:41:22;;;;;;;2.53;2.00;;;;;;;;;;5055859;28;20201;-90
2022/08/05 11:43:57;;;;;;;2.00;1.85;;;;;;;;;;5055796;28;20243;-88
2022/08/05 11:46:27;;;;;;;2.55;2.10;;;;;;;;;;5056525;28;20244;-89
2022/08/05 11:48:54;;;;;;;2.08;1.88;;;;;;;;;;5055117;28;20241;-89
2022/08/05 11:51:22;;;;;;;2.40;2.20;;;;;;;;;;5057255;28;20206;-89
2022/08/05 11:53:49;;;;;;;2.13;1.92;;;;;;;;;;5056539;28;20237;-88
2022/08/05 11:56:17;;;;;;;2.40;1.88;;;;;;;;;;5057133;28;20202;-89
2022/08/05 11:58:46;;;;;;;2.40;2.20;;;;;;;;;;5057269;28;20221;-88
2022/08/05 12:01:14;;;;;;;5.05;2.00;;;;;;;;;;5064880;28;20213;-88
2022/08/05 12:03:42;;;;;;;3.10;2.20;;;;;;;;;;5058870;28;20241;-89
2022/08/05 12:06:10;;;;;;;1.92;1.77;;;;;;;;;;5057273;28;20206;-88
2022/08/05 12:08:41;;;;;;;2.10;1.92;;;;;;;;;;5060186;28;20241;-88
2022/08/05 12:11:09;;;;;;;2.20;2.03;;;;;;;;;;5064039;28;20405;-88
2022/08/05 12:13:37;;;;;;;1.92;1.83;;;;;;;;;;5061777;28;20234;-89
2022/08/05 12:16:05;;;;;;;4.53;2.00;;;;;;;;;;5058703;28;20682;-88
2022/08/05 12:18:33;;;;;;;2.35;2.15;;;;;;;;;;5055937;28;20237;-89
2022/08/05 12:21:10;;;;;;;2.20;2.10;;;;;;;;;;5055617;28;20218;-88
2022/08/05 12:23:37;;;;;;;3.33;1.75;;;;;;;;;;5054973;28;20230;-89
2022/08/05 12:26:04;;;;;;;3.13;2.00;;;;;;;;;;5055110;28;20364;-88
2022/08/05 12:28:34;;;;;;;2.45;1.92;;;;;;;;;;5054592;28;20241;-89
2022/08/05 12:31:03;;;;;;;4.22;2.20;;;;;;;;;;5055054;28;20721;-88
2022/08/05 12:33:31;;;;;;;2.00;1.90;;;;;;;;;;5054473;28;20245;-89
2022/08/05 12:35:58;;;;;;;2.00;1.90;;;;;;;;;;5055350;28;20237;-89
2022/08/05 12:38:25;;;;;;;2.35;2.15;;;;;;;;;;5054226;28;20241;-89
2022/08/05 12:40:54;;;;;;;2.33;2.13;;;;;;;;;;5055221;28;20210;-88
2022/08/05 12:43:21;;;;;;;2.20;2.00;;;;;;;;;;5055270;28;20238;-89
2022/08/05 12:45:51;;;;;;;2.00;1.90;;;;;;;;;;5056805;28;20661;-89
2022/08/05 12:48:20;;;;;;;4.57;2.10;;;;;;;;;;5054441;28;20238;-89
2022/08/05 12:51:02;;;;;;;2.40;2.20;;;;;;;;;;5056780;28;20217;-89
2022/08/05 12:53:29;;;;;;;2.60;2.20;;;;;;;;;;5044743;28;20256;-88
2022/08/05 12:55:57;;;;;;;3.67;2.40;;;;;;;;;;5061090;28;20213;-88
2022/08/05 12:58:24;;;;;;;2.30;2.10;;;;;;;;;;5058834;28;20593;-89
2022/08/05 13:00:54;;;;;;;2.65;2.00;;;;;;;;;;5056124;28;20824;-89
2022/08/05 13:03:22;;;;;;;3.85;2.10;;;;;;;;;;5070285;28;20257;-88
2022/08/05 13:05:49;;;;;;;2.03;1.92;;;;;;;;;;5075968;28;20212;-88
2022/08/05 13:08:17;;;;;;;2.20;2.08;;;;;;;;;;5062420;28;20716;-88
2022/08/05 13:10:45;;;;;;;3.25;1.85;;;;;;;;;;5061606;28;20202;-89
2022/08/05 13:13:12;;;;;;;2.72;2.20;;;;;;;;;;5061558;28;20233;-89
2022/08/05 13:15:40;;;;;;;2.33;2.13;;;;;;;;;;5058314;28;20564;-89
2022/08/05 13:18:08;;;;;;;4.78;2.90;;;;;;;;;;5057809;28;20242;-90
2022/08/05 13:20:36;;;;;;;3.72;2.40;;;;;;;;;;5054528;28;20208;-88
2022/08/05 13:23:03;;;;;;;3.25;2.40;;;;;;;;;;5053727;28;20238;-89
2022/08/05 13:25:31;;;;;;;2.03;1.92;;;;;;;;;;5054436;28;20206;-87
2022/08/05 13:27:58;;;;;;;2.55;2.35;;;;;;;;;;5054076;28;20237;-88
2022/08/05 13:30:25;;;;;;;4.78;2.55;;;;;;;;;;5054358;28;20208;-90
2022/08/05 13:32:53;;;;;;;2.63;2.42;;;;;;;;;;5053858;28;20312;-89
2022/08/05 13:35:21;;;;;;;2.53;2.33;;;;;;;;;;5054999;28;20202;-90
2022/08/05 13:37:49;;;;;;;3.35;2.53;;;;;;;;;;5054725;28;20230;-90
2022/08/05 13:40:17;;;;;;;3.38;2.35;;;;;;;;;;5054466;28;20206;-89
2022/08/05 13:42:44;;;;;;;4.03;2.63;;;;;;;;;;5053360;28;20229;-89
2022/08/05 13:45:12;;;;;;;2.10;2.00;;;;;;;;;;5054407;28;20250;-89
2022/08/05 13:47:39;;;;;;;2.65;2.45;;;;;;;;;;5053991;28;20236;-88
2022/08/05 13:50:07;;;;;;;3.53;2.70;;;;;;;;;;5047106;28;20647;-87
2022/08/05 13:52:34;;;;;;;3.75;2.53;;;;;;;;;;5044819;28;20232;-88
2022/08/05 13:55:02;;;;;;;4.78;2.88;;;;;;;;;;5043453;28;20305;-87
2022/08/05 13:57:29;;;;;;;2.95;2.45;;;;;;;;;;5053746;28;20613;-88
2022/08/05 13:59:56;;;;;;;2.88;2.50;;;;;;;;;;5090937;22;20236;-80
2022/08/05 14:02:24;;;;;;;3.20;2.35;;;;;;;;;;5062336;28;20233;-80
2022/08/05 14:07:37;;;;;;;3.35;2.40;;;;;;;;;;5055128;28;20348;-80
2022/08/05 14:10:06;;;;;;;3.13;2.63;;;;;;;;;;5055949;28;20236;-81
2022/08/05 14:12:33;;;;;;;3.92;2.63;;;;;;;;;;5055606;28;20241;-80
2022/08/05 14:15:00;;;;;;;3.10;2.80;;;;;;;;;;5055109;28;20206;-80
2022/08/05 14:17:27;;;;;;;4.35;3.00;;;;;;;;;;5055124;28;20620;-80
2022/08/05 14:19:55;;;;;;;2.95;2.70;;;;;;;;;;5055252;28;20230;-82
2022/08/05 14:22:22;;;;;;;3.72;2.50;;;;;;;;;;5053574;28;20240;-80
2022/08/05 14:24:49;;;;;;;2.80;2.50;;;;;;;;;;5055965;28;20213;-80
2022/08/05 14:27:17;;;;;;;5.32;2.72;;;;;;;;;;5055861;28;20233;-81
2022/08/05 14:29:44;;;;;;;5.05;2.92;;;;;;;;;;5054735;28;20218;-81
2022/08/05 14:32:12;;;;;;;5.85;2.78;;;;;;;;;;5054289;28;20237;-80
2022/08/05 14:34:39;;;;;;;2.78;2.58;;;;;;;;;;5055204;28;20186;-81
2022/08/05 14:37:06;;;;;;;3.13;2.53;;;;;;;;;;5054298;28;20229;-81
2022/08/05 14:39:33;;;;;;;2.88;2.67;;;;;;;;;;5054705;28;20256;-80
2022/08/05 14:42:00;;;;;;;4.03;2.83;;;;;;;;;;5054829;28;20230;-81
2022/08/05 14:44:29;;;;;;;3.88;2.88;;;;;;;;;;5055299;28;20209;-80
2022/08/05 14:46:56;;;;;;;5.45;3.65;;;;;;;;;;5060406;28;20205;-81
2022/08/05 14:49:23;;;;;;;4.32;3.13;;;;;;;;;;5095873;28;20589;-80
2022/08/05 14:51:50;;;;;;;3.53;3.22;;;;;;;;;;5095052;28;20212;-81
2022/08/05 14:54:18;;;;;;;5.93;3.65;;;;;;;;;;5096162;28;20627;-81
2022/08/05 14:56:45;;;;;;;4.50;4.05;;;;;;;;;;5095968;28;20304;-81
2022/08/05 14:59:12;;;;;;;4.82;3.85;;;;;;;;;;5097043;28;20231;-81